Time;durP1;ratioP1;P1;durP2;ratioP2;P2;SDS_P1;SDS_P2;PMS_P1;PMS_P2;Temp;Humidity;BMP_temperature;BMP_pressure;BME280_temperature;BME280_humidity;BME280_pressure;Samples;Min_cycle;Max_cycle;Signal;HPM_P1;HPM_P2
2023/10/22 00:00:00;;;;;;;11.82;3.63;;;;;;;-143.21;37.67;71160.13;5072272;28;20221;-79
2023/10/22 00:02:26;;;;;;;14.60;3.65;;;;;;;-143.21;38.30;71142.28;5072546;28;20275;-79
2023/10/22 00:04:53;;;;;;;16.98;3.83;;;;;;;-143.21;38.65;71150.22;5072815;28;20216;-79
2023/10/22 00:07:20;;;;;;;9.60;3.35;;;;;;;-143.21;38.65;71144.25;5056467;28;20596;-79
2023/10/22 00:09:47;;;;;;;19.05;3.53;;;;;;;-143.21;38.47;71150.22;5070012;28;20201;-79
2023/10/22 00:12:15;;;;;;;17.65;3.78;;;;;;;-143.21;38.57;71162.09;5072733;28;20201;-79
2023/10/22 00:14:42;;;;;;;13.07;3.53;;;;;;;-143.21;38.60;71166.06;5054602;28;20201;-79
2023/10/22 00:17:09;;;;;;;14.23;3.60;;;;;;;-143.21;38.34;71154.16;5071968;28;20220;-79
2023/10/22 00:19:35;;;;;;;13.80;3.70;;;;;;;-143.21;38.36;71154.16;5072319;28;20205;-79
2023/10/22 00:22:02;;;;;;;13.25;3.35;;;;;;;-143.21;38.16;71164.09;5072157;28;20246;-79
2023/10/22 00:24:29;;;;;;;19.25;3.53;;;;;;;-143.21;38.45;71148.22;5072374;28;20208;-79
2023/10/22 00:26:56;;;;;;;19.42;3.97;;;;;;;-143.21;38.03;71148.22;5053363;28;20220;-78
2023/10/22 00:29:24;;;;;;;15.38;3.55;;;;;;;-143.21;38.03;71156.16;5052584;28;20201;-79
2023/10/22 00:31:51;;;;;;;11.93;3.92;;;;;;;-143.21;38.06;71166.06;5066719;28;20201;-78
2023/10/22 00:34:17;;;;;;;15.35;3.50;;;;;;;-143.21;37.77;71181.94;5072192;28;20289;-79
2023/10/22 00:36:44;;;;;;;12.95;3.17;;;;;;;-143.21;36.68;71158.13;5071489;28;20223;-80
2023/10/22 00:39:11;;;;;;;22.30;3.92;;;;;;;-143.21;36.85;71144.25;5071712;28;20223;-79
2023/10/22 00:41:38;;;;;;;10.45;3.58;;;;;;;-143.21;36.87;71130.38;5072339;28;20194;-79
2023/10/22 00:44:05;;;;;;;10.52;3.08;;;;;;;-143.21;36.66;71126.41;5056590;28;20213;-79
2023/10/22 00:46:34;;;;;;;11.30;3.15;;;;;;;-143.21;37.07;71126.41;5057861;28;20217;-79
2023/10/22 00:49:02;;;;;;;12.52;3.58;;;;;;;-143.21;37.13;71118.50;5071952;28;20297;-79
2023/10/22 00:51:29;;;;;;;13.48;3.63;;;;;;;-143.21;36.97;71120.47;5071262;28;20194;-79
2023/10/22 00:53:57;;;;;;;16.27;3.92;;;;;;;-143.21;37.14;71122.44;5071714;28;20588;-79
2023/10/22 00:56:24;;;;;;;15.05;4.28;;;;;;;-143.21;36.95;71116.50;5072165;28;20202;-78
2023/10/22 00:58:50;;;;;;;13.15;3.95;;;;;;;-143.21;36.82;71128.41;5072098;28;20670;-78
2023/10/22 01:01:19;;;;;;;17.58;3.75;;;;;;;-143.21;36.54;71122.44;5071547;28;20647;-78
2023/10/22 01:03:47;;;;;;;14.10;3.53;;;;;;;-143.21;36.40;71128.41;5071548;28;20245;-79
2023/10/22 01:06:14;;;;;;;11.40;3.55;;;;;;;-143.21;36.11;71118.50;5071483;28;20584;-79
2023/10/22 01:08:42;;;;;;;11.10;3.38;;;;;;;-143.21;36.31;71124.44;5071580;28;20221;-79
2023/10/22 01:11:10;;;;;;;14.40;3.60;;;;;;;-143.21;36.15;71128.41;5071492;28;20205;-79
2023/10/22 01:13:37;;;;;;;17.60;3.47;;;;;;;-143.21;36.29;71118.50;5071458;28;20202;-79
2023/10/22 01:16:04;;;;;;;13.27;3.95;;;;;;;-143.21;36.29;71126.41;5071439;28;20193;-79
2023/10/22 01:18:31;;;;;;;16.27;3.60;;;;;;;-143.21;36.56;71116.50;5071350;28;20288;-80
2023/10/22 01:21:00;;;;;;;21.20;4.10;;;;;;;-143.21;36.58;71132.38;5071919;28;20295;-80
2023/10/22 01:23:28;;;;;;;25.05;4.07;;;;;;;-143.21;37.13;71124.44;5071233;28;20194;-80
2023/10/22 01:25:55;;;;;;;17.83;3.92;;;;;;;-143.21;37.06;71140.28;5071528;28;20185;-80
2023/10/22 01:28:21;;;;;;;13.30;3.50;;;;;;;-143.21;36.32;71148.22;5071265;28;20236;-80
2023/10/22 01:30:48;;;;;;;10.68;3.10;;;;;;;-143.21;35.80;71118.50;5071355;28;20233;-79
2023/10/22 01:33:29;;;;;;;19.58;3.95;;;;;;;-143.21;35.62;71130.38;5071532;28;20201;-79
2023/10/22 01:35:57;;;;;;;14.18;3.35;;;;;;;-143.21;35.53;71132.38;5071545;28;20596;-80
2023/10/22 01:38:24;;;;;;;20.05;3.97;;;;;;;-143.21;35.37;71120.47;5071692;28;20201;-79
2023/10/22 01:40:51;;;;;;;16.42;3.72;;;;;;;-143.21;35.75;71138.31;5071140;28;20255;-79
2023/10/22 01:43:22;;;;;;;13.77;3.20;;;;;;;-143.21;35.30;71138.31;5071469;28;20205;-80
2023/10/22 01:45:54;;;;;;;18.83;4.22;;;;;;;-143.21;35.68;71166.06;5071251;28;20209;-79
2023/10/22 01:48:20;;;;;;;20.17;3.60;;;;;;;-143.21;36.00;71183.91;5071840;28;20557;-81
2023/10/22 01:50:47;;;;;;;14.98;3.72;;;;;;;-143.21;35.98;71181.94;5070813;28;20551;-81
2023/10/22 01:53:14;;;;;;;16.65;3.63;;;;;;;-143.21;36.26;71183.91;5070190;28;20201;-80
2023/10/22 01:55:41;;;;;;;17.42;3.75;;;;;;;-143.21;37.39;71187.88;5051420;28;20202;-80
2023/10/22 01:58:09;;;;;;;17.95;4.35;;;;;;;-143.21;38.38;71187.88;5055783;28;20194;-81
2023/10/22 02:00:36;;;;;;;20.88;3.88;;;;;;;-143.21;38.70;71183.91;5051723;28;20210;-81
2023/10/22 02:03:04;;;;;;;9.88;3.20;;;;;;;-143.21;38.55;71189.84;5051361;28;20203;-80
2023/10/22 02:05:33;;;;;;;20.85;3.70;;;;;;;-143.21;38.81;71185.88;5050847;28;20190;-80
2023/10/22 02:08:00;;;;;;;15.15;3.67;;;;;;;-143.21;39.05;71185.88;5061278;28;20217;-81
2023/10/22 02:10:26;;;;;;;12.65;3.42;;;;;;;-143.21;39.58;71191.84;5070935;28;20548;-81
2023/10/22 02:12:53;;;;;;;9.05;3.65;;;;;;;-143.21;39.70;71205.72;5071294;28;20193;-81
2023/10/22 02:15:23;;;;;;;15.38;3.70;;;;;;;-143.21;39.86;71209.69;5071675;28;20271;-81
2023/10/22 02:17:53;;;;;;;19.42;4.50;;;;;;;-143.21;39.99;71215.63;5071331;28;20736;-81
2023/10/22 02:20:20;;;;;;;14.57;3.72;;;;;;;-143.21;40.03;71223.56;5061942;28;20206;-81
2023/10/22 02:22:46;;;;;;;11.60;3.42;;;;;;;-143.21;40.36;71233.47;5060289;28;20680;-81
2023/10/22 02:25:13;;;;;;;20.60;4.00;;;;;;;-143.21;41.02;71249.34;5075158;28;20200;-79
2023/10/22 02:27:40;;;;;;;15.18;4.00;;;;;;;-143.21;41.38;71237.44;5074624;28;20221;-79
2023/10/22 02:30:08;;;;;;;13.77;3.95;;;;;;;-143.21;41.78;71227.53;5074652;28;20221;-79
2023/10/22 02:32:36;;;;;;;15.93;3.95;;;;;;;-143.21;42.67;71221.56;5055059;28;20217;-79
2023/10/22 02:35:04;;;;;;;19.63;4.28;;;;;;;-143.21;41.06;71239.41;5055768;28;20992;-79
2023/10/22 02:37:31;;;;;;;21.73;4.40;;;;;;;-143.21;40.93;71253.28;5065561;28;20194;-79
2023/10/22 02:39:57;;;;;;;8.77;3.30;;;;;;;-143.21;40.82;71237.44;5054926;28;20217;-80
2023/10/22 02:42:26;;;;;;;13.23;3.50;;;;;;;-143.21;40.87;71249.34;5053737;28;20198;-80
2023/10/22 02:44:53;;;;;;;18.23;4.40;;;;;;;-143.21;40.70;71253.28;5067232;28;20726;-80
2023/10/22 02:47:19;;;;;;;16.85;4.00;;;;;;;-143.21;41.46;71265.19;5074385;28;20583;-80
2023/10/22 02:49:47;;;;;;;15.48;3.95;;;;;;;-143.21;42.12;71267.19;5064540;28;20586;-80
2023/10/22 02:52:14;;;;;;;15.43;4.03;;;;;;;-143.21;42.46;71267.19;5055607;28;20209;-80
2023/10/22 02:54:49;;;;;;;17.65;4.22;;;;;;;-143.21;42.57;71281.06;5055421;28;20679;-80
2023/10/22 02:57:16;;;;;;;18.75;4.43;;;;;;;-143.21;42.36;71283.03;5062941;28;20287;-80
2023/10/22 02:59:43;;;;;;;17.25;3.95;;;;;;;-143.21;41.15;71279.06;5074642;28;20216;-80
2023/10/22 03:02:09;;;;;;;16.00;3.78;;;;;;;-143.21;40.84;71287.00;5074366;28;20200;-80
2023/10/22 03:04:36;;;;;;;13.95;4.07;;;;;;;-143.21;42.02;71275.09;5061923;28;20221;-80
2023/10/22 03:07:04;;;;;;;19.48;4.30;;;;;;;-143.21;42.75;71285.03;5053688;28;20282;-80
2023/10/22 03:09:31;;;;;;;10.63;4.03;;;;;;;-143.21;43.20;71310.78;5070182;28;20221;-79
2023/10/22 03:11:58;;;;;;;15.65;4.03;;;;;;;-143.21;43.08;71273.13;5058957;28;20198;-80
2023/10/22 03:14:25;;;;;;;14.50;4.10;;;;;;;-143.21;42.91;71288.97;5071582;28;20212;-80
2023/10/22 03:16:51;;;;;;;11.90;4.20;;;;;;;-143.21;42.97;71281.06;5058193;28;20206;-80
2023/10/22 03:19:19;;;;;;;10.50;3.53;;;;;;;-143.21;42.44;71290.97;5054145;28;20194;-80
2023/10/22 03:21:46;;;;;;;18.00;4.00;;;;;;;-143.21;42.33;71292.94;5054216;28;20220;-80
2023/10/22 03:24:17;;;;;;;16.25;3.78;;;;;;;-143.21;42.35;71296.91;5067406;28;20292;-80
2023/10/22 03:26:45;;;;;;;11.32;3.97;;;;;;;-143.21;42.70;71298.91;5069352;28;20198;-80
2023/10/22 03:29:12;;;;;;;15.63;4.50;;;;;;;-143.21;43.19;71302.84;5069337;28;20221;-79
2023/10/22 03:31:40;;;;;;;14.55;4.30;;;;;;;-143.21;43.81;71310.78;5073207;28;20198;-80
2023/10/22 03:34:07;;;;;;;13.02;4.53;;;;;;;-143.21;45.12;71312.78;5071823;28;20209;-80
2023/10/22 03:36:35;;;;;;;12.60;3.97;;;;;;;-143.21;45.43;71318.72;5073555;28;20193;-80
2023/10/22 03:39:02;;;;;;;18.90;5.00;;;;;;;-143.21;45.57;71336.56;5072854;28;20201;-80
2023/10/22 03:41:30;;;;;;;22.23;5.22;;;;;;;-143.21;45.93;71306.81;5073358;28;20624;-81
2023/10/22 03:43:57;;;;;;;15.60;3.95;;;;;;;-143.21;46.32;71356.38;5073226;28;20293;-81
2023/10/22 03:46:24;;;;;;;12.52;3.72;;;;;;;-143.21;46.45;71332.59;5073563;28;20197;-80
2023/10/22 03:48:51;;;;;;;12.23;4.53;;;;;;;-143.21;46.68;71352.44;5073141;28;20233;-80
2023/10/22 03:51:18;;;;;;;14.63;5.00;;;;;;;-143.21;46.44;71374.22;5073405;28;20197;-80
2023/10/22 03:53:45;;;;;;;17.33;4.45;;;;;;;-143.21;46.57;71360.34;5067585;28;20197;-79
2023/10/22 03:56:12;;;;;;;14.60;4.80;;;;;;;-143.21;47.15;71384.16;5053016;28;20679;-79
2023/10/22 03:58:40;;;;;;;13.50;4.15;;;;;;;-143.21;47.03;71382.16;5073178;28;20628;-79
2023/10/22 04:01:08;;;;;;;16.38;4.45;;;;;;;-143.21;47.40;71396.03;5072890;28;20208;-79
2023/10/22 04:03:34;;;;;;;16.90;4.75;;;;;;;-143.21;47.40;71374.22;5073130;28;20239;-79
2023/10/22 04:06:01;;;;;;;20.40;4.82;;;;;;;-143.21;47.31;71390.09;5067594;28;20202;-80
2023/10/22 04:08:28;;;;;;;16.52;4.75;;;;;;;-143.21;47.34;71390.09;5052409;28;20226;-79
2023/10/22 04:10:55;;;;;;;17.90;4.93;;;;;;;-143.21;47.55;71394.06;5052534;28;20190;-79
2023/10/22 04:13:22;;;;;;;14.73;5.03;;;;;;;-143.21;47.85;71411.91;5069892;28;20213;-79
2023/10/22 04:15:51;;;;;;;18.95;5.15;;;;;;;-143.21;47.81;71429.75;5072363;28;20197;-79
2023/10/22 04:18:19;;;;;;;12.00;4.47;;;;;;;-143.21;47.87;71423.78;5072503;28;20627;-78
2023/10/22 04:20:46;;;;;;;15.35;4.80;;;;;;;-143.21;48.45;71421.81;5072422;28;20210;-79
2023/10/22 04:23:12;;;;;;;17.42;4.97;;;;;;;-143.21;48.74;71445.59;5055786;28;20206;-79
2023/10/22 04:25:43;;;;;;;17.75;5.03;;;;;;;-143.21;48.52;71447.59;5072022;28;20629;-80
2023/10/22 04:28:10;;;;;;;10.75;3.78;;;;;;;-143.21;48.68;71447.59;5072085;28;20221;-80
2023/10/22 04:30:37;;;;;;;14.40;4.32;;;;;;;-143.21;48.42;71473.38;5072101;28;20225;-79
2023/10/22 04:33:06;;;;;;;15.20;4.30;;;;;;;-143.21;48.62;71489.22;5072067;28;20193;-80
2023/10/22 04:35:33;;;;;;;19.77;4.55;;;;;;;-143.21;49.15;71491.22;5072799;28;20246;-79
2023/10/22 04:38:00;;;;;;;18.70;4.45;;;;;;;-143.21;49.34;71501.13;5062410;28;20628;-79
2023/10/22 04:40:31;;;;;;;14.45;4.50;;;;;;;-143.21;49.82;71503.09;5052145;28;20201;-79
2023/10/22 04:42:58;;;;;;;11.02;4.65;;;;;;;-143.21;50.60;71526.91;5052091;28;20194;-79
2023/10/22 04:45:25;;;;;;;15.13;4.88;;;;;;;-143.21;51.36;71566.56;5065387;28;20212;-79
2023/10/22 04:47:52;;;;;;;19.65;4.80;;;;;;;-143.21;52.41;71602.25;5072313;28;20195;-79
2023/10/22 04:50:20;;;;;;;18.38;4.93;;;;;;;-143.21;52.82;71602.25;5072004;28;20193;-79
2023/10/22 04:52:47;;;;;;;16.40;5.43;;;;;;;-143.21;52.69;71610.16;5071991;28;20201;-79
2023/10/22 04:55:14;;;;;;;23.20;5.00;;;;;;;-143.21;52.56;71614.13;5056065;28;20198;-79
2023/10/22 04:57:40;;;;;;;13.23;4.82;;;;;;;-143.21;52.99;71598.28;5063871;28;20204;-79
2023/10/22 05:00:09;;;;;;;23.08;6.20;;;;;;;-143.21;53.17;71618.09;5071569;28;20193;-79
2023/10/22 05:02:36;;;;;;;20.48;5.15;;;;;;;-143.21;53.16;71612.16;5072018;28;20205;-78
2023/10/22 05:05:03;;;;;;;24.38;5.30;;;;;;;-143.21;53.53;71614.13;5071681;28;20194;-77
2023/10/22 05:07:32;;;;;;;21.83;5.57;;;;;;;-143.21;53.29;71598.28;5069733;28;20672;-81
2023/10/22 05:09:58;;;;;;;13.18;4.82;;;;;;;-143.21;53.41;71604.22;5066639;28;20227;-80
2023/10/22 05:12:25;;;;;;;18.67;5.30;;;;;;;-143.21;53.34;71614.13;5067369;28;20201;-81
2023/10/22 05:14:52;;;;;;;14.07;4.70;;;;;;;-143.21;53.71;71590.34;5065104;28;20202;-80
2023/10/22 05:17:24;;;;;;;16.92;4.38;;;;;;;-143.21;53.97;71606.22;5070819;28;20573;-80
2023/10/22 05:19:51;;;;;;;12.75;5.25;;;;;;;-143.21;54.37;71637.94;5068974;28;20212;-81
2023/10/22 05:22:18;;;;;;;18.40;4.82;;;;;;;-143.21;54.52;71626.03;5071189;28;20199;-81
2023/10/22 05:24:51;;;;;;;14.45;5.15;;;;;;;-143.21;54.48;71626.03;5064447;28;20288;-80
2023/10/22 05:27:19;;;;;;;12.43;4.70;;;;;;;-143.21;54.68;71620.09;5071260;28;20185;-80
2023/10/22 05:29:47;;;;;;;14.55;5.35;;;;;;;-143.21;54.72;71631.97;5070587;28;20240;-79
2023/10/22 05:32:15;;;;;;;16.30;5.32;;;;;;;-143.21;54.70;71618.09;5070487;28;20201;-79
2023/10/22 05:34:42;;;;;;;16.65;5.00;;;;;;;-143.21;54.85;71645.88;5070493;28;20193;-80
2023/10/22 05:37:18;;;;;;;16.60;5.82;;;;;;;-143.21;54.95;71630.00;5071266;28;20250;-80
2023/10/22 05:39:44;;;;;;;17.52;5.45;;;;;;;-143.21;55.19;71626.03;5069140;28;20797;-80
2023/10/22 05:42:13;;;;;;;12.75;5.60;;;;;;;-143.21;55.11;71626.03;5069082;28;20197;-80
2023/10/22 05:44:39;;;;;;;12.85;5.15;;;;;;;-143.21;55.01;71628.00;5060770;28;20198;-80
2023/10/22 05:47:07;;;;;;;17.52;5.90;;;;;;;-143.21;55.34;71633.97;5064580;28;20189;-79
2023/10/22 05:49:33;;;;;;;14.35;5.25;;;;;;;-143.21;55.98;71661.72;5064444;28;20224;-79
2023/10/22 05:52:03;;;;;;;16.52;5.80;;;;;;;-143.21;55.86;71663.72;5068121;28;20198;-80
2023/10/22 05:54:40;;;;;;;20.65;5.40;;;;;;;-143.21;56.32;71649.81;5061030;28;20209;-88
2023/10/22 05:57:06;;;;;;;12.93;5.28;;;;;;;-143.21;56.29;71663.72;5061357;28;20190;-85
2023/10/22 05:59:35;;;;;;;16.80;5.70;;;;;;;-143.21;56.08;71653.78;5076680;28;20193;-91
2023/10/22 06:02:04;;;;;;;20.38;5.20;;;;;;;-143.21;56.21;71659.75;5065233;28;20622;-81
2023/10/22 06:04:31;;;;;;;11.77;4.63;;;;;;;-143.21;56.42;71645.88;5069654;28;20276;-85
2023/10/22 06:06:58;;;;;;;13.38;5.25;;;;;;;-143.21;56.27;71649.81;5071288;28;20194;-83
2023/10/22 06:09:31;;;;;;;16.48;5.05;;;;;;;-143.21;56.11;71661.72;5068390;28;20252;-83
2023/10/22 06:11:57;;;;;;;20.13;5.40;;;;;;;-143.21;56.77;71641.91;5058996;28;20193;-82
2023/10/22 06:14:27;;;;;;;15.27;5.60;;;;;;;-143.21;56.26;71659.75;5063861;28;20204;-82
2023/10/22 06:16:55;;;;;;;12.85;5.60;;;;;;;-143.21;56.63;71667.66;5064121;28;20805;-78
2023/10/22 06:19:21;;;;;;;22.50;5.90;;;;;;;-143.21;56.65;71663.72;5069563;28;20197;-82
2023/10/22 06:21:48;;;;;;;19.98;6.32;;;;;;;-143.21;57.02;71671.63;5073697;28;20214;-81
2023/10/22 06:24:21;;;;;;;17.52;5.97;;;;;;;-143.21;57.32;71685.50;5074352;28;20193;-80
2023/10/22 06:26:49;;;;;;;15.82;5.78;;;;;;;-143.21;57.60;71695.44;5071695;28;20335;-78
2023/10/22 06:29:15;;;;;;;15.10;6.18;;;;;;;-143.21;57.68;71691.47;5063704;28;20233;-80
2023/10/22 06:31:43;;;;;;;15.43;6.68;;;;;;;-143.21;57.71;71705.34;5054025;28;20182;-78
2023/10/22 06:34:12;;;;;;;14.88;6.47;;;;;;;-143.21;57.97;71701.38;5057492;28;20767;-77
2023/10/22 06:36:39;;;;;;;19.80;7.00;;;;;;;-143.21;57.92;71699.41;5074196;28;20205;-77
2023/10/22 06:39:42;;;;;;;20.60;6.75;;;;;;;-143.21;57.67;71699.41;5074566;28;20201;-77
2023/10/22 06:42:09;;;;;;;16.15;7.70;;;;;;;-143.21;57.44;71691.47;5074098;28;20197;-78
2023/10/22 06:44:37;;;;;;;16.17;7.72;;;;;;;-143.21;57.55;71689.47;5073889;28;20271;-78
2023/10/22 06:47:04;;;;;;;16.08;7.68;;;;;;;-143.21;57.37;71685.50;5074025;28;20201;-78
2023/10/22 06:49:32;;;;;;;28.23;8.68;;;;;;;-143.21;57.15;71671.63;5073672;28;20220;-78
2023/10/22 06:51:59;;;;;;;19.60;8.35;;;;;;;-143.21;56.96;71673.63;5073226;28;20208;-78
2023/10/22 06:54:26;;;;;;;17.17;8.20;;;;;;;-143.21;56.57;71669.66;5073613;28;20201;-77
2023/10/22 06:56:53;;;;;;;16.08;7.63;;;;;;;-143.21;56.60;71667.66;5067715;28;20206;-78
2023/10/22 06:59:19;;;;;;;23.52;8.10;;;;;;;-143.21;56.69;71661.72;5053213;28;20193;-77
2023/10/22 07:01:46;;;;;;;18.10;7.53;;;;;;;-143.21;56.71;71661.72;5053497;28;20190;-78
2023/10/22 07:04:13;;;;;;;22.58;7.70;;;;;;;-143.21;56.76;71651.81;5053035;28;20724;-78
2023/10/22 07:06:42;;;;;;;19.08;7.47;;;;;;;-143.21;56.25;71647.84;5067575;28;20209;-78
2023/10/22 07:09:09;;;;;;;16.40;7.90;;;;;;;-143.21;56.24;71645.88;5072979;28;20956;-78
2023/10/22 07:11:37;;;;;;;17.48;7.50;;;;;;;-143.21;56.35;71657.75;5073346;28;20197;-77
2023/10/22 07:14:04;;;;;;;24.15;8.07;;;;;;;-143.21;56.24;71649.81;5073078;28;20664;-77
2023/10/22 07:16:31;;;;;;;23.48;8.00;;;;;;;-143.21;56.21;71641.91;5073456;28;20229;-77
2023/10/22 07:18:57;;;;;;;19.63;8.35;;;;;;;-143.21;55.95;71633.97;5073069;28;20189;-78
2023/10/22 07:21:24;;;;;;;24.75;8.57;;;;;;;-143.21;55.72;71622.06;5073030;28;20209;-77
2023/10/22 07:23:52;;;;;;;18.17;8.05;;;;;;;-143.21;55.78;71604.22;5073343;28;20252;-77
2023/10/22 07:26:19;;;;;;;27.00;8.00;;;;;;;-143.21;55.53;71602.25;5072683;28;20193;-77
2023/10/22 07:28:47;;;;;;;16.67;8.15;;;;;;;-143.21;55.77;71608.19;5072306;28;20201;-78
2023/10/22 07:31:17;;;;;;;23.40;8.68;;;;;;;-143.21;55.76;71592.31;5072801;28;20239;-77
2023/10/22 07:33:44;;;;;;;25.42;8.95;;;;;;;-143.21;55.01;71590.34;5073036;28;20201;-77
2023/10/22 07:36:11;;;;;;;23.95;8.68;;;;;;;-143.21;54.27;71566.56;5072971;28;20656;-78
2023/10/22 07:38:40;;;;;;;19.05;7.78;;;;;;;-143.21;53.61;71540.78;5072978;28;20262;-78
2023/10/22 07:41:13;;;;;;;29.08;8.48;;;;;;;-143.21;52.80;71513.03;5073066;28;20255;-76
2023/10/22 07:43:40;;;;;;;28.67;7.85;;;;;;;-143.21;52.31;71493.19;5072860;28;20232;-77
2023/10/22 07:46:07;;;;;;;21.63;7.10;;;;;;;-143.21;51.86;71479.31;5072716;28;20309;-78
2023/10/22 07:48:34;;;;;;;19.38;5.63;;;;;;;-143.21;50.70;71459.47;5072606;28;20575;-78
2023/10/22 07:51:09;;;;;;;13.98;5.35;;;;;;;-143.21;50.15;71437.69;5072584;28;20221;-78
2023/10/22 07:53:36;;;;;;;25.02;7.03;;;;;;;-143.21;50.29;71419.84;5072440;28;20251;-78
2023/10/22 07:56:04;;;;;;;21.33;7.97;;;;;;;-143.21;50.63;71411.91;5072713;28;20193;-78
2023/10/22 07:58:32;;;;;;;35.08;9.10;;;;;;;-143.21;50.70;71405.94;5072428;28;20212;-77
2023/10/22 08:01:03;;;;;;;21.77;8.48;;;;;;;-143.21;50.47;71411.91;5072217;28;20201;-79
2023/10/22 08:03:31;;;;;;;20.38;8.50;;;;;;;-143.21;50.41;71402.00;5072466;28;20308;-78
2023/10/22 08:05:58;;;;;;;24.88;7.63;;;;;;;-143.21;49.86;71392.06;5072329;28;20212;-77
2023/10/22 08:08:26;;;;;;;30.92;8.02;;;;;;;-143.21;49.74;71382.16;5071696;28;20205;-77
2023/10/22 08:10:57;;;;;;;35.65;8.93;;;;;;;-143.21;49.81;71370.28;5071720;28;20221;-77
2023/10/22 08:13:24;;;;;;;16.85;7.22;;;;;;;-143.21;49.45;71360.34;5072458;28;20236;-78
2023/10/22 08:15:52;;;;;;;24.48;6.50;;;;;;;-143.21;49.08;71342.50;5072186;28;20586;-79
2023/10/22 08:18:19;;;;;;;19.25;5.47;;;;;;;-143.21;48.19;71316.75;5072233;28;20206;-78
2023/10/22 08:20:46;;;;;;;19.52;6.32;;;;;;;-143.21;47.71;71292.94;5071242;28;20655;-78
2023/10/22 08:23:13;;;;;;;13.98;4.85;;;;;;;-143.21;46.59;71265.19;5072238;28;20178;-78
2023/10/22 08:25:39;;;;;;;17.10;4.03;;;;;;;-143.21;46.40;71249.34;5071900;28;20576;-78
2023/10/22 08:28:06;;;;;;;14.55;4.65;;;;;;;-143.21;46.21;71243.38;5071825;28;20694;-79
2023/10/22 08:30:33;;;;;;;21.77;5.00;;;;;;;-143.21;45.79;71225.53;5072368;28;20233;-77
2023/10/22 08:33:01;;;;;;;16.27;5.00;;;;;;;-143.21;45.52;71219.59;5071843;28;20221;-78
2023/10/22 08:35:28;;;;;;;17.13;5.22;;;;;;;-143.21;45.27;71205.72;5072042;28;20216;-78
2023/10/22 08:37:55;;;;;;;16.98;5.35;;;;;;;-143.21;44.88;71195.81;5071988;28;20209;-78
2023/10/22 08:40:24;;;;;;;14.68;4.95;;;;;;;-143.21;44.73;71179.94;5071798;28;20191;-79
2023/10/22 08:42:54;;;;;;;18.15;5.53;;;;;;;-143.21;44.22;71150.22;5072091;28;20182;-77
2023/10/22 08:45:22;;;;;;;16.80;5.18;;;;;;;-143.21;43.88;71116.50;5071218;28;20208;-77
2023/10/22 08:47:49;;;;;;;11.68;4.40;;;;;;;-143.21;43.11;71088.75;5071477;28;20605;-78
2023/10/22 08:50:18;;;;;;;18.63;4.63;;;;;;;-143.21;42.48;71062.97;5071449;28;20221;-78
2023/10/22 08:52:45;;;;;;;14.98;4.95;;;;;;;-143.21;41.57;71021.34;5071444;28;20661;-78
2023/10/22 08:55:15;;;;;;;15.00;4.85;;;;;;;-143.21;40.69;70979.72;5071463;28;20194;-78
2023/10/22 08:57:42;;;;;;;11.20;4.30;;;;;;;-143.21;39.95;70951.97;5071191;28;20212;-78
2023/10/22 09:00:13;;;;;;;18.33;5.32;;;;;;;-143.21;39.40;70930.16;5071318;28;20700;-77
2023/10/22 09:02:41;;;;;;;18.95;4.90;;;;;;;-143.21;39.60;70884.56;5071405;28;20197;-78
2023/10/22 09:05:13;;;;;;;21.73;5.03;;;;;;;-143.21;38.13;70844.91;5071428;28;20711;-79
2023/10/22 09:07:57;;;;;;;13.00;4.50;;;;;;;-143.21;37.03;70825.09;5071785;28;20201;-79
2023/10/22 09:10:28;;;;;;;13.32;4.10;;;;;;;-143.21;36.35;70797.34;5071890;28;20231;-80
2023/10/22 09:12:55;;;;;;;15.05;4.25;;;;;;;-143.21;35.89;70763.66;5071562;28;20733;-79
2023/10/22 09:15:22;;;;;;;18.00;4.47;;;;;;;-143.21;35.63;70777.53;5071295;28;20205;-79
2023/10/22 09:18:01;;;;;;;14.82;4.93;;;;;;;-143.21;35.94;70743.81;5071142;28;20178;-78
2023/10/22 09:20:29;;;;;;;11.45;4.57;;;;;;;-143.21;34.32;70688.31;5071170;28;20280;-79
2023/10/22 09:23:12;;;;;;;18.02;4.35;;;;;;;-143.21;34.22;70654.63;5071615;28;20318;-78
2023/10/22 09:25:40;;;;;;;12.30;4.32;;;;;;;-143.21;34.03;70616.97;5071322;28;20592;-78
2023/10/22 09:28:13;;;;;;;15.18;4.60;;;;;;;-143.21;33.22;70634.81;5071037;28;20209;-79
2023/10/22 09:30:40;;;;;;;13.43;4.47;;;;;;;-143.21;32.89;70626.88;5071268;28;20236;-78
2023/10/22 09:33:08;;;;;;;17.63;4.57;;;;;;;-143.21;32.31;70644.72;5075137;28;20258;-78
2023/10/22 09:35:35;;;;;;;27.23;3.92;;;;;;;-143.21;32.75;70630.84;5075434;28;20193;-79
2023/10/22 09:38:02;;;;;;;13.95;4.03;;;;;;;-143.21;32.67;70628.84;5075068;28;20283;-79
2023/10/22 09:40:35;;;;;;;20.92;4.75;;;;;;;-143.21;32.35;70599.13;5074859;28;20200;-79
2023/10/22 09:43:04;;;;;;;24.55;4.47;;;;;;;-143.21;31.94;70581.28;5075548;28;20224;-79
2023/10/22 09:45:32;;;;;;;18.58;4.05;;;;;;;-143.21;32.14;70571.38;5075405;28;20201;-77
2023/10/22 09:48:06;;;;;;;18.50;4.13;;;;;;;-143.21;31.62;70503.97;5075329;28;20185;-78
2023/10/22 09:50:39;;;;;;;15.88;5.10;;;;;;;-143.21;30.99;70474.25;5075032;28;20303;-78
2023/10/22 09:53:09;;;;;;;22.00;4.57;;;;;;;-143.21;30.77;70432.63;5075191;28;20223;-78
2023/10/22 09:55:40;;;;;;;20.35;5.43;;;;;;;-143.21;30.44;70398.94;5075527;28;20204;-78
2023/10/22 09:58:13;;;;;;;22.38;4.28;;;;;;;-143.21;30.36;70375.16;5075266;28;20645;-78
2023/10/22 10:00:40;;;;;;;22.75;4.57;;;;;;;-143.21;29.78;70303.78;5075270;28;20233;-78
2023/10/22 10:03:08;;;;;;;20.15;4.90;;;;;;;-143.21;29.16;70287.94;5074611;28;20267;-78
2023/10/22 10:05:35;;;;;;;23.33;4.90;;;;;;;-143.21;29.54;70274.06;5074686;28;20197;-78
2023/10/22 10:08:03;;;;;;;23.85;5.28;;;;;;;-143.21;29.54;70276.03;5055053;28;20190;-79
2023/10/22 10:10:31;;;;;;;24.85;5.00;;;;;;;-143.21;28.99;70264.16;5068199;28;20221;-77
2023/10/22 10:13:00;;;;;;;25.25;5.82;;;;;;;-143.21;28.78;70226.50;5074955;28;20213;-77
2023/10/22 10:15:32;;;;;;;25.35;4.80;;;;;;;-143.21;28.61;70172.97;5074419;28;20200;-78
2023/10/22 10:18:00;;;;;;;26.25;5.18;;;;;;;-143.21;28.34;70123.44;5074343;28;20190;-78
2023/10/22 10:20:30;;;;;;;28.88;4.80;;;;;;;-143.21;27.95;70107.59;5074484;28;20563;-78
2023/10/22 10:23:05;;;;;;;29.70;5.40;;;;;;;-143.21;28.19;70135.31;5074405;28;20969;-79
2023/10/22 10:25:34;;;;;;;27.48;5.00;;;;;;;-143.21;28.31;70216.59;5074063;28;20204;-78
2023/10/22 10:28:03;;;;;;;21.02;4.95;;;;;;;-143.21;28.28;70228.47;5074343;28;20564;-78
2023/10/22 10:30:30;;;;;;;30.02;5.45;;;;;;;-143.21;28.59;70244.34;5073954;28;20229;-77
2023/10/22 10:32:57;;;;;;;30.05;5.50;;;;;;;-143.21;28.58;70238.38;5074397;28;20201;-78
2023/10/22 10:35:28;;;;;;;22.40;4.68;;;;;;;-143.21;28.22;70206.69;5074617;28;20207;-78
2023/10/22 10:38:22;;;;;;;29.40;8.93;;;;;;;-143.21;28.14;70174.97;5074742;28;20265;-78
2023/10/22 10:40:51;;;;;;;20.90;4.90;;;;;;;-143.21;28.02;70153.16;5071905;28;20284;-78
2023/10/22 10:43:20;;;;;;;21.08;5.07;;;;;;;-143.21;28.42;70190.81;5073455;28;20258;-78
2023/10/22 10:46:25;;;;;;;25.30;5.55;;;;;;;-143.21;28.15;70190.81;5074510;28;20201;-79
2023/10/22 10:48:52;;;;;;;30.70;5.57;;;;;;;-143.21;28.31;70204.69;5074561;28;20197;-78
2023/10/22 10:51:20;;;;;;;29.10;6.35;;;;;;;-143.21;28.63;70236.41;5054138;28;20218;-78
2023/10/22 10:54:24;;;;;;;23.48;4.97;;;;;;;-143.21;28.68;70240.38;5073748;28;20212;-78
2023/10/22 10:56:52;;;;;;;28.65;5.10;;;;;;;-143.21;28.73;70212.63;5073949;28;20197;-79
2023/10/22 10:59:41;;;;;;;23.73;5.75;;;;;;;-143.21;28.21;70176.94;5073969;28;20201;-79
2023/10/22 11:02:12;;;;;;;29.20;5.60;;;;;;;-143.21;28.15;70178.94;5069310;28;20189;-79
2023/10/22 11:04:44;;;;;;;22.65;5.07;;;;;;;-143.21;28.36;70182.91;5073709;28;20224;-79
2023/10/22 11:07:11;;;;;;;33.22;5.10;;;;;;;-143.21;28.41;70153.16;5073769;28;20188;-80
2023/10/22 11:09:40;;;;;;;35.97;6.00;;;;;;;-143.21;28.09;70113.53;5072785;28;20204;-80
2023/10/22 11:12:09;;;;;;;36.92;6.22;;;;;;;-143.21;28.01;70075.88;5073168;28;20620;-78
2023/10/22 11:14:37;;;;;;;25.58;6.35;;;;;;;-143.21;28.14;70089.75;5073743;28;20228;-80